x

Canaveral East - 120nm East Of Cape Canaveral (41010) Wave Buoy

1:50pm - Sun 24th May 2015 All times are EDT. -4 hours from GMT.

  • Sig Wave height 4.9ft
  • Swell Direction
  • Peak Period 8s
  • Average Period 5s
  • Wind
    11mph, 13mph gusts
  • Sea Temp 80°f
  • Air Temp 79°f
  • Sea Pressure 1023.7mb
  • Canaveral East - 120nm East Of Cape Canaveral
  • Canaveral East - 120nm East Of Cape Canaveral

More Historic Weather Station data

Upgrade to MSW Pro to gain access to the past 30 days of data for over 8000 Wavebouys and Weather Stations around the globe.

Join Pro

Comparision Forecast

View Surf forecast
   
Sun 05/24 1:50pm 5ft 8s 5s 11 13 mph 1023.7mb 80f 79f
1:20pm  -   -   -  11 13 mph 1023.9mb 80f 78f
12:50pm 4.5ft 7s 5s 11 13 mph 1024.1mb 80f 78f
12:20pm  -   -   -  13 16 mph 1024.3mb 80f 79f
11:50am 4.5ft 8s 5s 13 18 mph 1024.3mb 80f 79f
11:20am  -   -   -  13 16 mph 1024.5mb 80f 79f
10:50am 4.5ft 7s 5s 13 16 mph 1024.5mb 80f 79f
10:20am  -   -   -  16 18 mph 1024.4mb 80f 79f
9:50am 5ft 8s 5s 13 16 mph 1024.5mb 80f 79f
9:20am  -   -   -  16 18 mph 1024.3mb 80f 78f
8:50am 5ft 7s 5s 16 18 mph 1024.1mb 80f 78f
8:20am  -   -   -  13 16 mph 1023.8mb 80f 78f
7:50am 5ft 7s 5s 9 11 mph 1024.2mb 80f 76f
7:20am  -   -   -  7 11 mph 1024mb 80f 73f
6:50am 5ft 7s 5s 11 18 mph 1024.1mb 80f 73f
6:20am  -   -   -  16 20 mph 1023.2mb 80f 78f
5:50am 5ft 7s 5s 18 22 mph 1023mb 80f 78f
5:20am  -   -   -  18 20 mph 1022.5mb 80f 78f
4:50am 5ft 6s 5s 16 20 mph 1022.8mb 80f 78f
4:20am  -   -   -  18 20 mph 1022.6mb 80f 78f
3:50am 5ft 6s 5s 18 20 mph 1022.5mb 80f 78f
3:20am  -   -   -  18 22 mph 1022.6mb 80f 78f
2:50am 5ft 6s 5s 18 20 mph 1022.6mb 80f 78f
2:20am  -   -   -  18 20 mph 1022.6mb 80f 78f
1:50am 5.5ft 8s 5s 20 22 mph 1022.8mb 80f 78f
1:20am  -   -   -  20 22 mph 1023.3mb 80f 78f
12:50am 5.5ft 7s 5s 20 25 mph 1023.4mb 80f 78f
12:20am  -   -   -  20 22 mph 1023.6mb 80f 78f
Sat 05/23 11:50pm 5.5ft 7s 5s 22 25 mph 1023.7mb 80f 78f
11:20pm  -   -   -  22 25 mph 1023.9mb 80f 78f
10:50pm 5.5ft 7s 5s 20 25 mph 1024.1mb 80f 78f
10:20pm  -   -   -  22 27 mph 1023.9mb 80f 78f
9:50pm 5.5ft 6s 5s 22 27 mph 1023.4mb 80f 78f
9:20pm  -   -   -  22 27 mph 1023.3mb 80f 78f
8:50pm 6ft 7s 5s 22 27 mph 1023.4mb 81f 78f
8:20pm  -   -   -  22 27 mph 1023.4mb 81f 78f
7:50pm 6ft 7s 5s 22 25 mph 1023.3mb 81f 78f
7:20pm  -   -   -  22 25 mph 1023.1mb 81f 78f
6:50pm 5.5ft 7s 5s 20 25 mph 1023mb 81f 78f
6:20pm  -   -   -  22 25 mph 1023.1mb 81f 79f
5:50pm 6ft 7s 5s 20 25 mph 1023.3mb 81f 79f
5:20pm  -   -   -  20 25 mph 1023.2mb 81f 79f
4:50pm 5.5ft 7s 5s 20 25 mph 1023.3mb 81f 79f
4:20pm  -   -   -  20 25 mph 1023.3mb 81f 79f
3:50pm 5ft 4s 5s 22 25 mph 1023.4mb 81f 79f
3:20pm  -   -   -  22 25 mph 1023.5mb 81f 79f
2:50pm 4.5ft 7s 5s 22 27 mph 1023.6mb 81f 79f
2:20pm  -   -   -  20 25 mph 1023.7mb 81f 79f
1:50pm 3.5ft 7s 5s 18 22 mph 1024.1mb 81f 80f
1:20pm  -   -   -  18 20 mph 1024.2mb 81f 80f
12:50pm 3.5ft 6s 5s 18 20 mph 1024.3mb 81f 80f
12:20pm  -   -   -  18 22 mph 1024.3mb 81f 80f
11:50am 3.5ft 7s 5s 18 20 mph 1024.2mb 81f 80f
11:20am  -   -   -  16 18 mph 1024.1mb 81f 80f
10:50am 3.5ft 8s 5s 13 16 mph 1024mb 81f 80f
10:20am  -   -   -  13 16 mph 1023.8mb 81f 80f
9:50am 3.5ft 7s 5s 13 16 mph 1023.7mb 81f 80f
9:20am  -   -   -  13 16 mph 1023.3mb 80f 80f
8:50am 3.5ft 8s 5s 13 16 mph 1023mb 81f 80f
8:20am  -   -   -  13 16 mph 1022.8mb 81f 80f
7:50am 3ft 7s 5s 13 18 mph 1022.7mb 81f 80f
7:20am  -   -   -  11 13 mph 1022.5mb 81f 79f
6:50am 3.5ft 7s 6s 9 11 mph 1022.3mb 81f 79f
6:20am  -   -   -  9 11 mph 1022mb 81f 79f
5:50am 3ft 7s 6s 9
mph
1021.6mb 81f 79f
5:20am  -   -   -  9
mph
1021.3mb 81f 79f
4:50am 2.5ft 8s 6s 9 11 mph 1020.9mb 81f 79f
4:20am  -   -   -  9 11 mph 1021.1mb 81f 79f
3:50am 2.5ft 8s 6s 7 9 mph 1021.1mb 81f 79f
3:20am  -   -   -  7 9 mph 1021.1mb 81f 79f
2:50am 2.5ft 8s 5s 9
mph
1020.7mb 81f 79f
2:20am  -   -   -  7 9 mph 1020.8mb 81f 79f
1:50am 2ft 8s 5s 7 9 mph 1021.2mb 81f 79f
1:20am  -   -   -  7 9 mph 1021.4mb 81f 79f
12:50am 2ft 5s 5s 7 9 mph 1021.4mb 81f 80f
12:20am  -   -   -  4
mph
1021.4mb 81f 80f
Fri 05/22 11:50pm 2ft 5s 5s 4 7 mph 1021.4mb 81f 80f
11:20pm  -   -   -  7
mph
1021.4mb 81f 80f
10:50pm 2ft 5s 5s 7
mph
1021.3mb 81f 80f
10:20pm  -   -   -  7 9 mph 1021.2mb 80f 80f
9:50pm 2ft 5s 5s 4 7 mph 1021mb 81f 80f
9:20pm  -   -   -  9
mph
1020.7mb 81f 80f
8:50pm 2.5ft 5s 4s 7 9 mph 1020.3mb 81f 80f
8:20pm  -   -   -  9 11 mph 1020.1mb 81f 80f
7:50pm 2.5ft 5s 4s 9 11 mph 1019.7mb 81f 81f
7:20pm  -   -   -  11 13 mph 1019.2mb 81f 81f
6:50pm 2.5ft 5s 5s 11 13 mph 1019.1mb 81f 81f
6:20pm  -   -   -  9 11 mph 1019.1mb 81f 81f
5:50pm 2.5ft 5s 5s 11 13 mph 1019.1mb 82f 81f
5:20pm  -   -   -  9 11 mph 1019mb 81f 81f
4:50pm 2.5ft 5s 5s 9 11 mph 1019mb 81f 81f
4:20pm  -   -   -  9
mph
1018.9mb 82f 81f
3:50pm 2.5ft 5s 5s 7 9 mph 1018.8mb 83f 81f
3:20pm  -   -   -  7 9 mph 1019.1mb 83f 81f
2:50pm 2.5ft 5s 5s 7
mph
1019mb 83f 81f
2:20pm  -   -   -  4 7 mph 1019.2mb 83f 81f
1:50pm 2.5ft 5s 5s 2 4 mph 1019.1mb 82f 81f
1:20pm  -   -   -  2 4 mph 1019mb 82f 81f
12:50pm 2.5ft 5s 5s 2 4 mph 1018.9mb 81f 81f
12:20pm  -   -   -  4 7 mph 1018.9mb 80f 81f
11:50am 2.5ft 5s 4s 9
mph
1018.7mb 80f 80f
11:20am  -   -   -  9 11 mph 1018.5mb 80f 81f
10:50am 2.5ft 5s 5s 4 7 mph 1018.5mb 80f 81f
10:20am  -   -   -  7
mph
1018.3mb 79f 81f
9:50am 2.5ft 5s 4s 7 9 mph 1018.1mb 79f 80f
9:20am  -   -   -  7 9 mph 1017.9mb 79f 80f
8:50am 3ft 5s 4s 9 11 mph 1017.5mb 79f 80f
8:20am  -   -   -  11
mph
1017.4mb 79f 81f
7:50am 2.5ft 5s 4s 9 11 mph 1017.1mb 79f 81f
7:20am  -   -   -  9 11 mph 1017mb 79f 80f
6:50am 3.5ft 4s 4s 11 13 mph 1016.7mb 78f 80f
6:20am  -   -   -  11 13 mph 1016.4mb 79f 80f
5:50am 3ft 4s 4s 13 18 mph 1016mb 79f 80f
5:20am  -   -   -  16 18 mph 1015.7mb 79f 80f
4:50am 2.5ft 4s 4s 16 18 mph 1015.8mb 79f 80f
4:20am  -   -   -  18 20 mph 1015.6mb 79f 80f
3:50am 3ft 4s 4s 18 20 mph 1015.6mb 79f 80f
3:20am  -   -   -  16 18 mph 1015.5mb 79f 80f
2:50am 2.5ft 4s 4s 16 18 mph 1015.5mb 79f 80f
2:20am  -   -   -  13 18 mph 1015.6mb 79f 80f
1:50am 2.5ft 4s 4s 13 16 mph 1015.6mb 79f 80f
1:20am  -   -   -  13 16 mph 1015.8mb 79f 80f
12:50am 2.5ft 4s 4s 11 13 mph 1015.8mb 79f 80f
12:20am  -   -   -  13
mph
1015.8mb 79f 80f
Thu 05/21 11:50pm 2.5ft 4s 4s 13 16 mph 1016mb 79f 80f
11:20pm  -   -   -  11 13 mph 1015.9mb 79f 80f
10:50pm 2ft 4s 4s 11 13 mph 1015.7mb 79f 80f
10:20pm  -   -   -  11 13 mph 1015.6mb 79f 80f
9:50pm 2.5ft 4s 4s 11 13 mph 1015.2mb 79f 80f
9:20pm  -   -   -  11 13 mph 1014.7mb 79f 80f
8:50pm 2.5ft 8s 4s 11 13 mph 1014.6mb 79f 80f
8:20pm  -   -   -  11 13 mph 1014.3mb 79f 80f
7:50pm 2ft 8s 4s 13 16 mph 1014.1mb 79f 80f
7:20pm  -   -   -  13 16 mph 1014.1mb 79f 80f
6:50pm 2ft 4s 4s 11 13 mph 1014.1mb 79f 80f
6:20pm  -   -   -  11 13 mph 1013.9mb 80f 81f
5:50pm 2ft 8s 4s 11 13 mph 1013.9mb 80f 80f
5:20pm  -   -   -  11
mph
1013.9mb 80f 80f
4:50pm 2ft 4s 4s 9 11 mph 1014.3mb 80f 80f
4:20pm  -   -   -  11
mph
1014.5mb 80f 80f
3:50pm 2ft 4s 4s 9 11 mph 1014.7mb 79f 80f
3:20pm  -   -   -  11 13 mph 1014.8mb 80f 80f
2:50pm 2.5ft 8s 4s 11 13 mph 1014.9mb 79f 80f
2:20pm  -   -   -  11 13 mph 1015.2mb 79f 80f
1:50pm 2.5ft 4s 4s 11 13 mph 1015.3mb 79f 80f
1:20pm  -   -   -  9 11 mph 1015.4mb 79f 80f
12:50pm 2.5ft 4s 4s 11 13 mph 1015.5mb 79f 80f
12:20pm  -   -   -  11 13 mph 1015.7mb 79f 80f
11:50am 2.5ft 9s 4s 11 13 mph 1016mb 79f 80f
11:20am  -   -   -  11 13 mph 1015.9mb 79f 80f
10:50am 2.5ft 5s 4s 13 16 mph 1015.7mb 79f 80f
10:20am  -   -   -  13 16 mph 1015.5mb 79f 80f
9:50am 2.5ft 4s 4s 11 13 mph 1015.5mb 79f 80f
9:20am  -   -   -  11 13 mph 1015.3mb 78f 80f
8:50am 2.5ft 5s 4s 11 13 mph 1015.3mb 78f 80f
8:20am  -   -   -  11 13 mph 1015.1mb 78f 80f
7:50am 2.5ft 8s 5s 11 13 mph 1015.1mb 78f 80f
7:20am  -   -   -  11 13 mph 1014.9mb 78f 80f
6:50am 2.5ft 8s 5s 11 13 mph 1014.7mb 78f 79f
6:20am  -   -   -  11 13 mph 1014.4mb 78f 79f
5:50am 2.5ft 9s 4s 11 13 mph 1014.4mb 78f 79f
5:20am  -   -   -  9 11 mph 1014.2mb 78f 79f
4:50am 2.5ft 9s 5s 9 11 mph 1014.2mb 78f 79f
4:20am  -   -   -  11 16 mph 1014.3mb 78f 79f
3:50am 2.5ft 4s 5s 9 11 mph 1014.4mb 78f 79f
3:20am  -   -   -  11
mph
1014.6mb 78f 79f
2:50am 2.5ft 4s 4s 11 13 mph 1015.1mb 78f 79f
2:20am  -   -   -  11 13 mph 1015.3mb 78f 78f
1:50am 2.5ft 4s 4s 13 16 mph 1015.5mb 78f 78f
1:20am  -   -   -  13 16 mph 1015.4mb 78f 78f
12:50am 2.5ft 7s 4s 16 20 mph 1015.2mb 79f 78f
12:20am  -   -   -  16 18 mph 1015mb 79f 78f
Wed 05/20 11:50pm 2.5ft 8s 5s 16 18 mph 1015.1mb 79f 78f
11:20pm  -   -   -  16 18 mph 1015.1mb 79f 79f
10:50pm 2ft 8s 5s 13 16 mph 1015.4mb 79f 79f
10:20pm  -   -   -  13 16 mph 1015.4mb 79f 79f
9:50pm 2.5ft 9s 5s 11 13 mph 1015.5mb 79f 79f
9:20pm  -   -   -  11 13 mph 1015.6mb 79f 79f
8:50pm 2ft 8s 5s 9 11 mph 1015.7mb 79f 79f
8:20pm  -   -   -  9 11 mph 1015.5mb 79f 79f
7:50pm 2.5ft 8s 5s 9 11 mph 1015.2mb 79f 79f
7:20pm  -   -   -  9
mph
1015.2mb 79f 79f
6:50pm 2ft 9s 5s 9
mph
1014.9mb 79f 79f